sensor_id;sensor_type;location;lat;lon;timestamp;pressure;altitude;pressure_sealevel;temperature;humidity
15880;BME280;61999;51.514;14.614;2023-02-19T00:01:51;99832.81;;;1.70;79.23
15880;BME280;61999;51.514;14.614;2023-02-19T00:04:21;99832.56;;;2.31;78.92
15880;BME280;61999;51.514;14.614;2023-02-19T00:06:49;99828.72;;;2.21;78.18
15880;BME280;61999;51.514;14.614;2023-02-19T00:09:18;99822.22;;;1.56;78.78
15880;BME280;61999;51.514;14.614;2023-02-19T00:11:47;99828.06;;;2.35;78.58
15880;BME280;61999;51.514;14.614;2023-02-19T00:14:18;99822.03;;;2.52;77.65
15880;BME280;61999;51.514;14.614;2023-02-19T00:16:48;99830.28;;;2.43;77.25
15880;BME280;61999;51.514;14.614;2023-02-19T00:19:18;99823.78;;;2.51;77.29
15880;BME280;61999;51.514;14.614;2023-02-19T00:21:47;99828.31;;;2.48;77.16
15880;BME280;61999;51.514;14.614;2023-02-19T00:24:15;99814.22;;;2.52;76.65
15880;BME280;61999;51.514;14.614;2023-02-19T00:26:44;99825.69;;;1.94;77.28
15880;BME280;61999;51.514;14.614;2023-02-19T00:29:18;99822.19;;;1.76;77.48
15880;BME280;61999;51.514;14.614;2023-02-19T00:31:47;99827.38;;;2.31;77.49
15880;BME280;61999;51.514;14.614;2023-02-19T00:34:15;99819.09;;;2.23;76.04
15880;BME280;61999;51.514;14.614;2023-02-19T00:36:43;99826.75;;;2.44;76.55
15880;BME280;61999;51.514;14.614;2023-02-19T00:39:14;99835.03;;;2.52;76.41
15880;BME280;61999;51.514;14.614;2023-02-19T00:41:44;99826.16;;;2.56;75.84
15880;BME280;61999;51.514;14.614;2023-02-19T00:44:13;99832.13;;;2.40;75.35
15880;BME280;61999;51.514;14.614;2023-02-19T00:46:42;99831.47;;;2.18;75.07
15880;BME280;61999;51.514;14.614;2023-02-19T00:49:16;99838.00;;;2.44;75.79
15880;BME280;61999;51.514;14.614;2023-02-19T00:51:45;99826.25;;;2.72;75.75
15880;BME280;61999;51.514;14.614;2023-02-19T00:54:14;99823.38;;;2.42;74.54
15880;BME280;61999;51.514;14.614;2023-02-19T00:56:42;99815.88;;;2.70;75.74
15880;BME280;61999;51.514;14.614;2023-02-19T00:59:10;99820.56;;;2.46;74.69
15880;BME280;61999;51.514;14.614;2023-02-19T01:01:38;99807.44;;;2.13;74.34
15880;BME280;61999;51.514;14.614;2023-02-19T01:04:07;99813.91;;;2.23;75.67
15880;BME280;61999;51.514;14.614;2023-02-19T01:06:36;99821.50;;;2.28;75.15
15880;BME280;61999;51.514;14.614;2023-02-19T01:09:04;99826.97;;;1.85;74.33
15880;BME280;61999;51.514;14.614;2023-02-19T01:11:34;99820.78;;;2.24;75.37
15880;BME280;61999;51.514;14.614;2023-02-19T01:14:02;99805.09;;;2.26;75.25
15880;BME280;61999;51.514;14.614;2023-02-19T01:16:30;99801.38;;;2.49;75.04
15880;BME280;61999;51.514;14.614;2023-02-19T01:18:59;99806.56;;;2.49;75.05
15880;BME280;61999;51.514;14.614;2023-02-19T01:21:28;99798.47;;;2.55;75.02
15880;BME280;61999;51.514;14.614;2023-02-19T01:23:58;99809.78;;;2.54;74.83
15880;BME280;61999;51.514;14.614;2023-02-19T01:26:29;99807.19;;;2.54;75.07
15880;BME280;61999;51.514;14.614;2023-02-19T01:28:58;99798.69;;;2.68;75.03
15880;BME280;61999;51.514;14.614;2023-02-19T01:31:28;99782.50;;;2.78;75.11
15880;BME280;61999;51.514;14.614;2023-02-19T01:33:59;99787.50;;;2.83;74.82
15880;BME280;61999;51.514;14.614;2023-02-19T01:36:31;99779.59;;;2.84;75.01
15880;BME280;61999;51.514;14.614;2023-02-19T01:39:02;99773.06;;;2.93;74.69
15880;BME280;61999;51.514;14.614;2023-02-19T01:41:34;99770.06;;;3.01;74.80
15880;BME280;61999;51.514;14.614;2023-02-19T01:44:06;99772.44;;;3.05;75.23
15880;BME280;61999;51.514;14.614;2023-02-19T01:46:36;99754.13;;;3.07;75.13
15880;BME280;61999;51.514;14.614;2023-02-19T01:49:09;99750.44;;;3.11;74.97
15880;BME280;61999;51.514;14.614;2023-02-19T01:51:45;99755.47;;;3.14;75.27
15880;BME280;61999;51.514;14.614;2023-02-19T01:54:20;99754.47;;;3.17;75.18
15880;BME280;61999;51.514;14.614;2023-02-19T01:56:51;99755.31;;;3.17;75.17
15880;BME280;61999;51.514;14.614;2023-02-19T01:59:19;99741.38;;;3.18;74.92
15880;BME280;61999;51.514;14.614;2023-02-19T02:01:47;99735.97;;;3.21;74.23
15880;BME280;61999;51.514;14.614;2023-02-19T02:04:17;99735.16;;;3.21;73.98
15880;BME280;61999;51.514;14.614;2023-02-19T02:06:49;99732.47;;;3.22;74.43
15880;BME280;61999;51.514;14.614;2023-02-19T02:09:21;99729.00;;;3.22;74.83
15880;BME280;61999;51.514;14.614;2023-02-19T02:12:08;99723.06;;;3.20;74.65
15880;BME280;61999;51.514;14.614;2023-02-19T02:14:40;99721.09;;;2.92;73.78
15880;BME280;61999;51.514;14.614;2023-02-19T02:17:20;99715.81;;;3.09;74.53
15880;BME280;61999;51.514;14.614;2023-02-19T02:20:10;99701.69;;;3.13;74.55
15880;BME280;61999;51.514;14.614;2023-02-19T02:22:49;99707.66;;;3.15;74.14
15880;BME280;61999;51.514;14.614;2023-02-19T02:25:45;99702.38;;;3.17;74.46
15880;BME280;61999;51.514;14.614;2023-02-19T02:28:46;99707.66;;;2.66;73.43
15880;BME280;61999;51.514;14.614;2023-02-19T02:31:25;99709.56;;;2.96;74.38
15880;BME280;61999;51.514;14.614;2023-02-19T02:34:01;99713.94;;;2.95;74.24
15880;BME280;61999;51.514;14.614;2023-02-19T02:36:35;99694.72;;;2.82;73.83
15880;BME280;61999;51.514;14.614;2023-02-19T02:39:11;99696.03;;;2.56;73.61
15880;BME280;61999;51.514;14.614;2023-02-19T02:41:43;99699.38;;;2.75;73.97
15880;BME280;61999;51.514;14.614;2023-02-19T02:44:12;99698.06;;;2.51;72.98
15880;BME280;61999;51.514;14.614;2023-02-19T02:46:44;99696.38;;;2.50;73.42
15880;BME280;61999;51.514;14.614;2023-02-19T02:49:20;99686.13;;;2.47;72.87
15880;BME280;61999;51.514;14.614;2023-02-19T02:51:53;99685.75;;;2.70;73.77
15880;BME280;61999;51.514;14.614;2023-02-19T02:54:28;99677.31;;;2.82;73.79
15880;BME280;61999;51.514;14.614;2023-02-19T02:57:17;99675.38;;;2.86;73.64
15880;BME280;61999;51.514;14.614;2023-02-19T02:59:46;99672.56;;;2.57;72.49
15880;BME280;61999;51.514;14.614;2023-02-19T03:02:21;99668.34;;;2.55;72.62
15880;BME280;61999;51.514;14.614;2023-02-19T03:04:56;99661.44;;;2.87;73.29
15880;BME280;61999;51.514;14.614;2023-02-19T03:07:57;99659.19;;;2.30;71.98
15880;BME280;61999;51.514;14.614;2023-02-19T03:10:34;99654.72;;;2.16;72.74
15880;BME280;61999;51.514;14.614;2023-02-19T03:13:07;99650.97;;;2.22;73.27
15880;BME280;61999;51.514;14.614;2023-02-19T03:16:00;99646.03;;;2.51;72.03
15880;BME280;61999;51.514;14.614;2023-02-19T03:18:53;99637.09;;;2.22;73.15
15880;BME280;61999;51.514;14.614;2023-02-19T03:21:46;99645.50;;;1.93;73.35
15880;BME280;61999;51.514;14.614;2023-02-19T03:24:19;99646.84;;;2.18;73.54
15880;BME280;61999;51.514;14.614;2023-02-19T03:27:08;99641.41;;;2.23;72.91
15880;BME280;61999;51.514;14.614;2023-02-19T03:29:39;99638.44;;;2.46;72.09
15880;BME280;61999;51.514;14.614;2023-02-19T03:32:14;99642.53;;;2.68;71.80
15880;BME280;61999;51.514;14.614;2023-02-19T03:34:51;99636.03;;;2.59;71.55
15880;BME280;61999;51.514;14.614;2023-02-19T03:37:27;99626.22;;;2.48;71.21
15880;BME280;61999;51.514;14.614;2023-02-19T03:39:56;99621.06;;;2.47;71.49
15880;BME280;61999;51.514;14.614;2023-02-19T03:42:35;99622.88;;;2.78;71.38
15880;BME280;61999;51.514;14.614;2023-02-19T03:45:30;99624.91;;;2.89;70.71
15880;BME280;61999;51.514;14.614;2023-02-19T03:48:19;99623.09;;;2.91;70.74
15880;BME280;61999;51.514;14.614;2023-02-19T03:51:03;99627.94;;;2.97;70.28
15880;BME280;61999;51.514;14.614;2023-02-19T03:53:40;99624.25;;;3.01;70.28
15880;BME280;61999;51.514;14.614;2023-02-19T03:56:19;99620.56;;;3.05;70.34
15880;BME280;61999;51.514;14.614;2023-02-19T03:58:59;99620.56;;;3.05;69.92
15880;BME280;61999;51.514;14.614;2023-02-19T04:01:33;99626.34;;;3.10;70.19
15880;BME280;61999;51.514;14.614;2023-02-19T04:04:12;99627.44;;;3.06;69.60
15880;BME280;61999;51.514;14.614;2023-02-19T04:06:49;99623.72;;;3.10;69.66
15880;BME280;61999;51.514;14.614;2023-02-19T04:09:21;99620.38;;;3.08;69.41
15880;BME280;61999;51.514;14.614;2023-02-19T04:11:51;99624.06;;;3.04;69.64
15880;BME280;61999;51.514;14.614;2023-02-19T04:14:26;99617.69;;;3.10;69.59
15880;BME280;61999;51.514;14.614;2023-02-19T04:17:00;99619.88;;;3.17;69.80
15880;BME280;61999;51.514;14.614;2023-02-19T04:19:34;99618.88;;;3.20;69.70
15880;BME280;61999;51.514;14.614;2023-02-19T04:22:06;99609.13;;;3.23;69.69
15880;BME280;61999;51.514;14.614;2023-02-19T04:24:39;99610.56;;;3.29;69.66
15880;BME280;61999;51.514;14.614;2023-02-19T04:27:10;99592.16;;;3.32;69.74
15880;BME280;61999;51.514;14.614;2023-02-19T04:29:38;99585.94;;;3.35;69.58
15880;BME280;61999;51.514;14.614;2023-02-19T04:32:08;99597.13;;;3.37;69.62
15880;BME280;61999;51.514;14.614;2023-02-19T04:34:36;99594.50;;;3.37;69.33
15880;BME280;61999;51.514;14.614;2023-02-19T04:37:06;99597.94;;;3.37;69.23
15880;BME280;61999;51.514;14.614;2023-02-19T04:39:34;99610.16;;;3.37;68.88
15880;BME280;61999;51.514;14.614;2023-02-19T04:42:02;99609.72;;;3.28;68.91
15880;BME280;61999;51.514;14.614;2023-02-19T04:44:32;99606.19;;;3.29;68.76
15880;BME280;61999;51.514;14.614;2023-02-19T04:47:00;99605.44;;;3.27;68.75
15880;BME280;61999;51.514;14.614;2023-02-19T04:49:28;99598.19;;;3.33;68.99
15880;BME280;61999;51.514;14.614;2023-02-19T04:51:56;99599.91;;;3.34;69.00
15880;BME280;61999;51.514;14.614;2023-02-19T04:54:25;99612.66;;;3.22;68.69
15880;BME280;61999;51.514;14.614;2023-02-19T04:56:53;99602.09;;;3.25;68.84
15880;BME280;61999;51.514;14.614;2023-02-19T04:59:21;99614.31;;;3.23;68.85
15880;BME280;61999;51.514;14.614;2023-02-19T05:01:49;99612.31;;;3.13;68.22
15880;BME280;61999;51.514;14.614;2023-02-19T05:04:17;99607.19;;;3.11;68.21
15880;BME280;61999;51.514;14.614;2023-02-19T05:06:45;99596.72;;;2.97;67.87
15880;BME280;61999;51.514;14.614;2023-02-19T05:09:13;99598.44;;;3.12;68.51
15880;BME280;61999;51.514;14.614;2023-02-19T05:11:42;99601.56;;;3.03;67.70
15880;BME280;61999;51.514;14.614;2023-02-19T05:14:10;99603.16;;;2.90;67.41
15880;BME280;61999;51.514;14.614;2023-02-19T05:16:38;99606.09;;;2.83;67.34
15880;BME280;61999;51.514;14.614;2023-02-19T05:19:05;99606.56;;;2.43;67.62
15880;BME280;61999;51.514;14.614;2023-02-19T05:21:33;99601.09;;;1.44;69.02
15880;BME280;61999;51.514;14.614;2023-02-19T05:24:01;99606.66;;;1.90;68.57
15880;BME280;61999;51.514;14.614;2023-02-19T05:26:29;99604.63;;;1.78;68.56
15880;BME280;61999;51.514;14.614;2023-02-19T05:28:59;99604.75;;;1.40;68.76
15880;BME280;61999;51.514;14.614;2023-02-19T05:31:27;99605.13;;;1.86;67.85
15880;BME280;61999;51.514;14.614;2023-02-19T05:33:56;99614.38;;;1.92;67.87
15880;BME280;61999;51.514;14.614;2023-02-19T05:36:24;99610.31;;;1.86;68.01
15880;BME280;61999;51.514;14.614;2023-02-19T05:38:53;99614.34;;;2.09;67.91
15880;BME280;61999;51.514;14.614;2023-02-19T05:41:24;99623.44;;;1.83;67.81
15880;BME280;61999;51.514;14.614;2023-02-19T05:43:53;99625.94;;;1.50;67.65
15880;BME280;61999;51.514;14.614;2023-02-19T05:46:25;99626.34;;;1.60;68.17
15880;BME280;61999;51.514;14.614;2023-02-19T05:48:54;99622.97;;;1.58;68.17
15880;BME280;61999;51.514;14.614;2023-02-19T05:51:24;99632.06;;;1.66;67.59
15880;BME280;61999;51.514;14.614;2023-02-19T05:53:55;99639.88;;;1.30;68.28
15880;BME280;61999;51.514;14.614;2023-02-19T05:56:30;99653.22;;;1.22;68.35
15880;BME280;61999;51.514;14.614;2023-02-19T05:58:59;99644.50;;;1.42;68.05
15880;BME280;61999;51.514;14.614;2023-02-19T06:01:30;99657.16;;;1.31;67.84
15880;BME280;61999;51.514;14.614;2023-02-19T06:03:58;99656.41;;;0.91;69.20
15880;BME280;61999;51.514;14.614;2023-02-19T06:06:27;99665.72;;;0.76;68.62
15880;BME280;61999;51.514;14.614;2023-02-19T06:08:55;99666.53;;;0.58;69.14
15880;BME280;61999;51.514;14.614;2023-02-19T06:11:23;99666.19;;;0.66;69.54
15880;BME280;61999;51.514;14.614;2023-02-19T06:13:51;99667.25;;;0.80;69.62
15880;BME280;61999;51.514;14.614;2023-02-19T06:16:19;99683.00;;;0.96;68.90
15880;BME280;61999;51.514;14.614;2023-02-19T06:18:50;99683.09;;;0.74;67.91
15880;BME280;61999;51.514;14.614;2023-02-19T06:21:18;99689.72;;;1.19;68.27
15880;BME280;61999;51.514;14.614;2023-02-19T06:23:46;99705.25;;;0.63;67.73
15880;BME280;61999;51.514;14.614;2023-02-19T06:26:17;99710.91;;;0.09;69.41
15880;BME280;61999;51.514;14.614;2023-02-19T06:28:47;99710.88;;;0.11;70.35
15880;BME280;61999;51.514;14.614;2023-02-19T06:31:17;99719.66;;;0.49;69.77
15880;BME280;61999;51.514;14.614;2023-02-19T06:33:46;99721.34;;;0.50;69.35
15880;BME280;61999;51.514;14.614;2023-02-19T06:36:20;99727.44;;;0.49;68.09
15880;BME280;61999;51.514;14.614;2023-02-19T06:38:48;99729.25;;;0.68;67.34
15880;BME280;61999;51.514;14.614;2023-02-19T06:41:16;99729.75;;;0.55;66.89
15880;BME280;61999;51.514;14.614;2023-02-19T06:43:44;99738.00;;;0.45;66.44
15880;BME280;61999;51.514;14.614;2023-02-19T06:46:13;99741.34;;;0.88;66.27
15880;BME280;61999;51.514;14.614;2023-02-19T06:48:43;99750.06;;;0.46;66.32
15880;BME280;61999;51.514;14.614;2023-02-19T06:51:13;99759.50;;;0.04;67.88
15880;BME280;61999;51.514;14.614;2023-02-19T06:53:43;99754.03;;;-0.10;66.82
15880;BME280;61999;51.514;14.614;2023-02-19T06:56:23;99770.06;;;-0.22;65.79
15880;BME280;61999;51.514;14.614;2023-02-19T06:58:53;99778.50;;;-0.17;66.42
15880;BME280;61999;51.514;14.614;2023-02-19T07:01:22;99775.78;;;-0.36;67.34
15880;BME280;61999;51.514;14.614;2023-02-19T07:03:51;99784.03;;;-0.48;67.08
15880;BME280;61999;51.514;14.614;2023-02-19T07:06:20;99781.72;;;-0.56;65.37
15880;BME280;61999;51.514;14.614;2023-02-19T07:08:51;99778.91;;;-0.28;65.96
15880;BME280;61999;51.514;14.614;2023-02-19T07:11:19;99793.31;;;0.01;65.51
15880;BME280;61999;51.514;14.614;2023-02-19T07:13:47;99785.00;;;0.37;63.90
15880;BME280;61999;51.514;14.614;2023-02-19T07:16:20;99799.38;;;0.44;63.93
15880;BME280;61999;51.514;14.614;2023-02-19T07:18:48;99808.91;;;0.44;63.68
15880;BME280;61999;51.514;14.614;2023-02-19T07:21:17;99803.34;;;0.53;63.72
15880;BME280;61999;51.514;14.614;2023-02-19T07:23:45;99812.19;;;0.27;63.19
15880;BME280;61999;51.514;14.614;2023-02-19T07:26:17;99821.59;;;0.29;63.62
15880;BME280;61999;51.514;14.614;2023-02-19T07:28:47;99833.22;;;0.19;63.54
15880;BME280;61999;51.514;14.614;2023-02-19T07:31:17;99836.41;;;0.26;63.63
15880;BME280;61999;51.514;14.614;2023-02-19T07:33:46;99840.50;;;0.09;64.19
15880;BME280;61999;51.514;14.614;2023-02-19T07:36:16;99848.50;;;0.27;63.43
15880;BME280;61999;51.514;14.614;2023-02-19T07:38:45;99843.53;;;0.21;63.05
15880;BME280;61999;51.514;14.614;2023-02-19T07:41:14;99856.53;;;-0.03;63.32
15880;BME280;61999;51.514;14.614;2023-02-19T07:43:42;99863.03;;;-0.15;63.34
15880;BME280;61999;51.514;14.614;2023-02-19T07:46:12;99865.75;;;0.04;63.21
15880;BME280;61999;51.514;14.614;2023-02-19T07:48:42;99869.09;;;0.30;62.91
15880;BME280;61999;51.514;14.614;2023-02-19T07:51:13;99885.13;;;0.18;62.32
15880;BME280;61999;51.514;14.614;2023-02-19T07:53:44;99893.31;;;0.07;62.66
15880;BME280;61999;51.514;14.614;2023-02-19T07:56:14;99896.31;;;-0.27;63.37
15880;BME280;61999;51.514;14.614;2023-02-19T07:58:42;99913.44;;;0.00;63.70
15880;BME280;61999;51.514;14.614;2023-02-19T08:01:14;99911.13;;;-0.55;63.16
15880;BME280;61999;51.514;14.614;2023-02-19T08:03:43;99917.56;;;-0.66;63.56
15880;BME280;61999;51.514;14.614;2023-02-19T08:06:11;99934.94;;;-0.95;64.62
15880;BME280;61999;51.514;14.614;2023-02-19T08:08:39;99930.94;;;-0.79;64.03
15880;BME280;61999;51.514;14.614;2023-02-19T08:11:08;99940.66;;;-0.35;64.57
15880;BME280;61999;51.514;14.614;2023-02-19T08:13:56;99935.84;;;-0.46;64.08
15880;BME280;61999;51.514;14.614;2023-02-19T08:16:23;99937.34;;;-0.15;63.82
15880;BME280;61999;51.514;14.614;2023-02-19T08:19:07;99949.69;;;-0.72;64.58
15880;BME280;61999;51.514;14.614;2023-02-19T08:21:35;99950.72;;;-0.27;63.70
15880;BME280;61999;51.514;14.614;2023-02-19T08:24:04;99951.25;;;-0.43;62.93
15880;BME280;61999;51.514;14.614;2023-02-19T08:26:32;99952.81;;;-0.14;62.60
15880;BME280;61999;51.514;14.614;2023-02-19T08:29:01;99966.66;;;-0.63;63.10
15880;BME280;61999;51.514;14.614;2023-02-19T08:31:29;99972.53;;;-0.58;63.62
15880;BME280;61999;51.514;14.614;2023-02-19T08:33:58;99979.31;;;-0.31;63.49
15880;BME280;61999;51.514;14.614;2023-02-19T08:36:26;99992.19;;;-0.04;63.10
15880;BME280;61999;51.514;14.614;2023-02-19T08:38:54;99993.72;;;-0.47;62.33
15880;BME280;61999;51.514;14.614;2023-02-19T08:41:22;99994.59;;;-0.48;63.41
15880;BME280;61999;51.514;14.614;2023-02-19T08:43:50;100000.28;;;-0.13;63.38
15880;BME280;61999;51.514;14.614;2023-02-19T08:46:19;99993.31;;;0.12;63.16
15880;BME280;61999;51.514;14.614;2023-02-19T08:48:48;100001.28;;;-0.41;63.20
15880;BME280;61999;51.514;14.614;2023-02-19T08:51:16;100014.13;;;-0.89;64.71
15880;BME280;61999;51.514;14.614;2023-02-19T08:53:44;100014.03;;;-0.36;64.13
15880;BME280;61999;51.514;14.614;2023-02-19T08:56:15;100010.94;;;0.26;63.70
15880;BME280;61999;51.514;14.614;2023-02-19T08:58:44;100012.69;;;-0.21;63.55
15880;BME280;61999;51.514;14.614;2023-02-19T09:01:14;100025.00;;;0.44;63.11
15880;BME280;61999;51.514;14.614;2023-02-19T09:03:43;100033.69;;;-0.05;63.01
15880;BME280;61999;51.514;14.614;2023-02-19T09:06:15;100043.81;;;0.02;62.46
15880;BME280;61999;51.514;14.614;2023-02-19T09:08:43;100056.44;;;-0.39;62.80
15880;BME280;61999;51.514;14.614;2023-02-19T09:11:11;100062.16;;;-0.04;63.71
15880;BME280;61999;51.514;14.614;2023-02-19T09:13:40;100066.69;;;-0.11;62.78
15880;BME280;61999;51.514;14.614;2023-02-19T09:16:09;100065.06;;;-0.13;63.89
15880;BME280;61999;51.514;14.614;2023-02-19T09:18:37;100074.25;;;-0.04;62.77
15880;BME280;61999;51.514;14.614;2023-02-19T09:21:06;100074.91;;;0.26;62.88
15880;BME280;61999;51.514;14.614;2023-02-19T09:23:35;100074.00;;;0.03;63.17
15880;BME280;61999;51.514;14.614;2023-02-19T09:26:05;100074.09;;;0.25;62.53
15880;BME280;61999;51.514;14.614;2023-02-19T09:28:36;100079.13;;;0.30;62.58
15880;BME280;61999;51.514;14.614;2023-02-19T09:31:09;100075.97;;;0.69;62.25
15880;BME280;61999;51.514;14.614;2023-02-19T09:33:41;100079.72;;;-0.12;61.25
15880;BME280;61999;51.514;14.614;2023-02-19T09:36:12;100102.00;;;-0.60;61.73
15880;BME280;61999;51.514;14.614;2023-02-19T09:38:40;100110.63;;;-0.59;64.48
15880;BME280;61999;51.514;14.614;2023-02-19T09:41:17;100118.69;;;-0.42;62.98
15880;BME280;61999;51.514;14.614;2023-02-19T09:43:49;100114.91;;;-0.32;63.65
15880;BME280;61999;51.514;14.614;2023-02-19T09:46:27;100114.44;;;-0.99;65.98
15880;BME280;61999;51.514;14.614;2023-02-19T09:49:04;100107.63;;;-0.20;63.31
15880;BME280;61999;51.514;14.614;2023-02-19T09:51:36;100102.34;;;0.08;62.50
15880;BME280;61999;51.514;14.614;2023-02-19T09:54:14;100109.94;;;-1.21;62.47
15880;BME280;61999;51.514;14.614;2023-02-19T09:56:44;100124.06;;;-1.96;67.42
15880;BME280;61999;51.514;14.614;2023-02-19T09:59:19;100122.84;;;-1.83;67.08
15880;BME280;61999;51.514;14.614;2023-02-19T10:01:56;100137.56;;;-1.52;68.77
15880;BME280;61999;51.514;14.614;2023-02-19T10:04:26;100142.44;;;-1.74;68.52
15880;BME280;61999;51.514;14.614;2023-02-19T10:06:57;100144.72;;;-1.01;66.78
15880;BME280;61999;51.514;14.614;2023-02-19T10:09:30;100144.38;;;-0.62;64.37
15880;BME280;61999;51.514;14.614;2023-02-19T10:11:58;100141.03;;;-0.94;64.29
15880;BME280;61999;51.514;14.614;2023-02-19T10:14:34;100150.41;;;-1.20;66.34
15880;BME280;61999;51.514;14.614;2023-02-19T10:17:05;100150.84;;;-0.76;64.37
15880;BME280;61999;51.514;14.614;2023-02-19T10:19:34;100156.47;;;-0.35;63.88
15880;BME280;61999;51.514;14.614;2023-02-19T10:22:04;100157.84;;;-0.79;63.08
15880;BME280;61999;51.514;14.614;2023-02-19T10:24:32;100154.31;;;-0.77;64.13
15880;BME280;61999;51.514;14.614;2023-02-19T10:27:00;100154.78;;;0.41;63.88
15880;BME280;61999;51.514;14.614;2023-02-19T10:29:28;100162.25;;;0.74;61.26
15880;BME280;61999;51.514;14.614;2023-02-19T10:32:14;100168.97;;;0.04;62.86
15880;BME280;61999;51.514;14.614;2023-02-19T10:34:44;100170.84;;;-0.26;62.79
15880;BME280;61999;51.514;14.614;2023-02-19T10:37:16;100175.38;;;0.46;58.76
15880;BME280;61999;51.514;14.614;2023-02-19T10:39:47;100169.41;;;1.36;57.46
15880;BME280;61999;51.514;14.614;2023-02-19T10:42:19;100190.63;;;1.02;57.08
15880;BME280;61999;51.514;14.614;2023-02-19T10:44:52;100184.69;;;1.22;53.54
15880;BME280;61999;51.514;14.614;2023-02-19T10:47:24;100180.06;;;-0.17;58.93
15880;BME280;61999;51.514;14.614;2023-02-19T10:49:56;100193.78;;;0.63;58.91
15880;BME280;61999;51.514;14.614;2023-02-19T10:52:30;100193.09;;;1.28;56.83
15880;BME280;61999;51.514;14.614;2023-02-19T10:55:15;100200.28;;;1.22;52.88
15880;BME280;61999;51.514;14.614;2023-02-19T10:57:47;100212.75;;;0.40;55.28
15880;BME280;61999;51.514;14.614;2023-02-19T11:00:23;100208.50;;;0.63;55.58
15880;BME280;61999;51.514;14.614;2023-02-19T11:03:19;100221.72;;;0.80;56.90
15880;BME280;61999;51.514;14.614;2023-02-19T11:05:58;100219.03;;;0.06;56.44
15880;BME280;61999;51.514;14.614;2023-02-19T11:08:29;100224.91;;;-0.15;57.88
15880;BME280;61999;51.514;14.614;2023-02-19T11:10:59;100222.94;;;-0.63;59.36
15880;BME280;61999;51.514;14.614;2023-02-19T11:13:31;100230.69;;;0.20;59.39
15880;BME280;61999;51.514;14.614;2023-02-19T11:16:04;100233.41;;;0.15;55.69
15880;BME280;61999;51.514;14.614;2023-02-19T11:18:33;100233.56;;;-0.16;53.35
15880;BME280;61999;51.514;14.614;2023-02-19T11:21:05;100243.47;;;-0.57;57.92
15880;BME280;61999;51.514;14.614;2023-02-19T11:23:42;100235.06;;;0.44;57.52
15880;BME280;61999;51.514;14.614;2023-02-19T11:26:18;100238.81;;;0.86;56.00
15880;BME280;61999;51.514;14.614;2023-02-19T11:28:55;100242.25;;;0.86;54.18
15880;BME280;61999;51.514;14.614;2023-02-19T11:31:27;100235.63;;;1.48;52.20
15880;BME280;61999;51.514;14.614;2023-02-19T11:33:59;100240.16;;;2.09;51.01
15880;BME280;61999;51.514;14.614;2023-02-19T11:36:33;100238.31;;;1.23;52.00
15880;BME280;61999;51.514;14.614;2023-02-19T11:39:20;100254.56;;;1.28;52.22
15880;BME280;61999;51.514;14.614;2023-02-19T11:42:14;100253.97;;;1.43;52.92
15880;BME280;61999;51.514;14.614;2023-02-19T11:45:00;100251.63;;;2.05;50.60
15880;BME280;61999;51.514;14.614;2023-02-19T11:48:05;100271.53;;;2.26;49.35
15880;BME280;61999;51.514;14.614;2023-02-19T11:50:51;100275.88;;;1.13;49.26
15880;BME280;61999;51.514;14.614;2023-02-19T11:53:26;100253.81;;;0.27;52.92
15880;BME280;61999;51.514;14.614;2023-02-19T11:56:14;100248.59;;;-0.27;52.63
15880;BME280;61999;51.514;14.614;2023-02-19T11:59:01;100248.75;;;-0.04;51.54
15880;BME280;61999;51.514;14.614;2023-02-19T12:01:53;100277.19;;;-0.59;53.49
15880;BME280;61999;51.514;14.614;2023-02-19T12:04:54;100290.19;;;0.51;51.21
15880;BME280;61999;51.514;14.614;2023-02-19T12:07:59;100284.81;;;0.55;50.67
15880;BME280;61999;51.514;14.614;2023-02-19T12:10:46;100289.72;;;0.65;50.16
15880;BME280;61999;51.514;14.614;2023-02-19T12:13:31;100295.94;;;-0.22;52.28
15880;BME280;61999;51.514;14.614;2023-02-19T12:16:18;100297.53;;;0.10;52.02
15880;BME280;61999;51.514;14.614;2023-02-19T12:19:13;100301.31;;;0.26;51.37
15880;BME280;61999;51.514;14.614;2023-02-19T12:22:04;100302.31;;;1.00;49.93
15880;BME280;61999;51.514;14.614;2023-02-19T12:25:14;100308.16;;;0.02;49.72
15880;BME280;61999;51.514;14.614;2023-02-19T12:28:04;100302.88;;;1.32;49.67
15880;BME280;61999;51.514;14.614;2023-02-19T12:31:01;100304.16;;;-0.67;51.39
15880;BME280;61999;51.514;14.614;2023-02-19T12:33:58;100293.94;;;0.42;51.13
15880;BME280;61999;51.514;14.614;2023-02-19T12:36:42;100305.13;;;1.41;48.69
15880;BME280;61999;51.514;14.614;2023-02-19T12:39:25;100296.53;;;1.16;46.94
15880;BME280;61999;51.514;14.614;2023-02-19T12:42:07;100305.38;;;3.08;46.41
15880;BME280;61999;51.514;14.614;2023-02-19T12:44:41;100297.69;;;3.25;45.53
15880;BME280;61999;51.514;14.614;2023-02-19T12:47:19;100277.63;;;2.68;44.62
15880;BME280;61999;51.514;14.614;2023-02-19T12:49:58;100306.00;;;2.31;41.16
15880;BME280;61999;51.514;14.614;2023-02-19T12:52:34;100283.13;;;1.97;44.65
15880;BME280;61999;51.514;14.614;2023-02-19T12:55:20;100289.97;;;3.22;43.67
15880;BME280;61999;51.514;14.614;2023-02-19T12:57:51;100282.91;;;2.02;42.05
15880;BME280;61999;51.514;14.614;2023-02-19T13:00:30;100307.09;;;1.36;42.85
15880;BME280;61999;51.514;14.614;2023-02-19T13:03:10;100289.22;;;1.03;47.43
15880;BME280;61999;51.514;14.614;2023-02-19T13:05:46;100297.88;;;0.26;46.82
15880;BME280;61999;51.514;14.614;2023-02-19T13:08:25;100282.41;;;0.76;46.30
15880;BME280;61999;51.514;14.614;2023-02-19T13:10:58;100287.34;;;1.54;44.18
15880;BME280;61999;51.514;14.614;2023-02-19T13:13:33;100291.84;;;0.53;45.13
15880;BME280;61999;51.514;14.614;2023-02-19T13:16:09;100291.97;;;0.22;46.81
15880;BME280;61999;51.514;14.614;2023-02-19T13:18:46;100311.81;;;1.25;46.58
15880;BME280;61999;51.514;14.614;2023-02-19T13:21:18;100307.34;;;1.52;44.37
15880;BME280;61999;51.514;14.614;2023-02-19T13:24:05;100321.25;;;1.73;44.18
15880;BME280;61999;51.514;14.614;2023-02-19T13:27:02;100316.78;;;0.82;46.67
15880;BME280;61999;51.514;14.614;2023-02-19T13:30:03;100326.03;;;1.15;45.17